Time;durP1;ratioP1;P1;durP2;ratioP2;P2;SDS_P1;SDS_P2;PMS_P1;PMS_P2;Temp;Humidity;BMP_temperature;BMP_pressure;BME280_temperature;BME280_humidity;BME280_pressure;Samples;Min_cycle;Max_cycle;Signal;HPM_P1;HPM_P2
2021/11/03 00:02:11;;;;;;;13.80;7.53;;;4.60;99.90;;;;;;5074702;28;20447;-50
2021/11/03 00:04:41;;;;;;;14.63;7.20;;;4.50;99.90;;;;;;5072562;28;20516;-50
2021/11/03 00:07:10;;;;;;;8.50;6.47;;;4.60;99.90;;;;;;5074018;28;20895;-49
2021/11/03 00:09:37;;;;;;;9.20;6.90;;;4.50;99.90;;;;;;5073217;28;20486;-50
2021/11/03 00:12:07;;;;;;;9.67;7.40;;;4.50;99.90;;;;;;5073637;28;20477;-49
2021/11/03 00:14:34;;;;;;;8.47;6.73;;;4.40;99.90;;;;;;5074282;28;20447;-49
2021/11/03 00:17:01;;;;;;;11.37;8.07;;;4.50;99.90;;;;;;5072086;28;20535;-49
2021/11/03 00:19:28;;;;;;;11.63;7.87;;;4.50;99.90;;;;;;5064141;28;20463;-49
2021/11/03 00:21:55;;;;;;;12.00;8.07;;;4.60;99.90;;;;;;5072561;28;20958;-50
2021/11/03 00:24:23;;;;;;;10.93;7.57;;;4.50;99.90;;;;;;5072508;28;20533;-49
2021/11/03 00:26:49;;;;;;;12.43;8.27;;;4.50;99.90;;;;;;5068831;28;20474;-49
2021/11/03 00:29:18;;;;;;;9.87;7.53;;;4.50;99.90;;;;;;5070607;28;20553;-49
2021/11/03 00:31:45;;;;;;;14.13;8.40;;;4.40;99.90;;;;;;5070150;28;20442;-49
2021/11/03 00:34:12;;;;;;;10.10;7.63;;;4.30;99.90;;;;;;5074549;28;20504;-49
2021/11/03 00:36:39;;;;;;;10.53;8.13;;;4.30;99.90;;;;;;5074159;28;20470;-49
2021/11/03 00:39:06;;;;;;;10.73;8.40;;;4.30;99.90;;;;;;5074420;28;20447;-50
2021/11/03 00:41:33;;;;;;;11.23;8.47;;;4.30;99.90;;;;;;5073182;28;20536;-49
2021/11/03 00:44:00;;;;;;;10.87;8.30;;;4.30;99.90;;;;;;5069484;28;20501;-50
2021/11/03 00:46:28;;;;;;;13.77;8.80;;;4.30;99.90;;;;;;5072421;28;20525;-49
2021/11/03 00:48:55;;;;;;;17.50;8.80;;;4.10;99.90;;;;;;5067411;28;20450;-49
2021/11/03 00:51:22;;;;;;;13.23;7.70;;;4.20;99.90;;;;;;5073276;28;20482;-49
2021/11/03 00:53:49;;;;;;;10.60;7.60;;;4.20;99.90;;;;;;5056800;28;20448;-50
2021/11/03 00:56:17;;;;;;;9.73;7.13;;;4.20;99.90;;;;;;5061497;28;20613;-49
2021/11/03 00:58:44;;;;;;;11.20;6.80;;;4.30;99.90;;;;;;5072634;28;20512;-50
2021/11/03 01:01:11;;;;;;;11.73;6.87;;;4.30;99.90;;;;;;5073936;28;20446;-50
2021/11/03 01:03:39;;;;;;;12.27;7.40;;;4.30;99.90;;;;;;5069455;28;20447;-50
2021/11/03 01:06:06;;;;;;;8.97;6.87;;;4.10;99.90;;;;;;5056049;28;20472;-50
2021/11/03 01:08:33;;;;;;;11.97;7.43;;;4.10;99.90;;;;;;5073402;28;20446;-48
2021/11/03 01:11:00;;;;;;;10.70;7.40;;;4.10;99.90;;;;;;5073507;28;20517;-50
2021/11/03 01:13:28;;;;;;;9.20;6.80;;;4.00;99.90;;;;;;5073604;28;20447;-50
2021/11/03 01:15:57;;;;;;;9.40;7.07;;;3.90;99.90;;;;;;5073496;28;20532;-49
2021/11/03 01:18:25;;;;;;;10.20;7.00;;;4.00;99.90;;;;;;5073535;28;20451;-50
2021/11/03 01:20:54;;;;;;;10.30;6.90;;;4.00;99.90;;;;;;5073416;28;20449;-50
2021/11/03 01:23:22;;;;;;;9.03;6.67;;;4.00;99.90;;;;;;5073037;28;20447;-49
2021/11/03 01:25:50;;;;;;;10.20;7.37;;;3.90;99.90;;;;;;5073771;28;20470;-50
2021/11/03 01:28:17;;;;;;;10.00;7.37;;;3.90;99.90;;;;;;5073481;28;20943;-50
2021/11/03 01:30:45;;;;;;;9.20;6.90;;;4.00;99.90;;;;;;5072817;28;20477;-50
2021/11/03 01:33:13;;;;;;;8.57;6.87;;;3.90;99.90;;;;;;5073074;28;20483;-50
2021/11/03 01:35:40;;;;;;;9.37;7.10;;;3.90;99.90;;;;;;5072674;28;20466;-50
2021/11/03 01:38:09;;;;;;;9.10;6.83;;;3.90;99.90;;;;;;5073189;28;21004;-50
2021/11/03 01:40:39;;;;;;;10.53;6.60;;;3.80;99.90;;;;;;5072528;28;20860;-49
2021/11/03 01:43:07;;;;;;;8.33;6.63;;;3.90;99.90;;;;;;5072765;28;20891;-50
2021/11/03 01:45:34;;;;;;;7.67;6.87;;;3.80;99.90;;;;;;5072749;28;20462;-49
2021/11/03 01:48:04;;;;;;;8.77;7.00;;;3.80;99.90;;;;;;5073043;28;20519;-50
2021/11/03 01:50:41;;;;;;;10.60;6.77;;;3.70;99.90;;;;;;5072481;28;20474;-49
2021/11/03 01:53:12;;;;;;;7.07;5.70;;;3.70;99.90;;;;;;5073031;28;20453;-49
2021/11/03 01:55:42;;;;;;;8.20;6.60;;;3.80;99.90;;;;;;5072283;28;20527;-50
2021/11/03 01:58:14;;;;;;;7.83;6.20;;;4.00;99.90;;;;;;5072980;28;20583;-49
2021/11/03 02:00:45;;;;;;;9.20;5.90;;;3.90;99.90;;;;;;5072319;28;20450;-49
2021/11/03 02:03:15;;;;;;;7.43;5.70;;;4.00;99.90;;;;;;5072493;28;20496;-49
2021/11/03 02:05:45;;;;;;;9.00;6.40;;;3.90;99.90;;;;;;5072810;28;20466;-49
2021/11/03 02:08:14;;;;;;;7.80;5.80;;;3.90;99.90;;;;;;5073120;28;20495;-49
2021/11/03 02:10:41;;;;;;;8.90;6.30;;;4.00;99.90;;;;;;5072496;28;20528;-49
2021/11/03 02:13:10;;;;;;;8.67;6.33;;;4.00;99.90;;;;;;5071918;28;20500;-50
2021/11/03 02:15:38;;;;;;;7.60;6.70;;;3.80;99.90;;;;;;5071499;28;20467;-50
2021/11/03 02:18:07;;;;;;;7.87;6.07;;;3.90;99.90;;;;;;5072060;28;20512;-49
2021/11/03 02:20:34;;;;;;;8.03;5.97;;;3.90;99.90;;;;;;5072434;28;20450;-50
2021/11/03 02:23:14;;;;;;;8.77;6.53;;;3.90;99.90;;;;;;5072279;28;20866;-50
2021/11/03 02:25:47;;;;;;;8.50;6.27;;;3.80;99.90;;;;;;5072256;28;20558;-50
2021/11/03 02:28:17;;;;;;;8.93;6.63;;;3.70;99.90;;;;;;5071990;28;20451;-49
2021/11/03 02:30:44;;;;;;;8.70;6.67;;;3.80;99.90;;;;;;5072189;28;20482;-50
2021/11/03 02:33:16;;;;;;;9.47;6.80;;;3.70;99.90;;;;;;5071860;28;20512;-50
2021/11/03 02:35:50;;;;;;;7.97;5.73;;;3.70;99.90;;;;;;5071733;28;20475;-50
2021/11/03 02:38:27;;;;;;;7.93;6.07;;;3.80;99.90;;;;;;5072155;28;20435;-49
2021/11/03 02:41:00;;;;;;;11.50;6.83;;;3.70;99.90;;;;;;5071904;28;20442;-50
2021/11/03 02:43:30;;;;;;;8.03;6.10;;;3.60;99.90;;;;;;5071712;28;20451;-49
2021/11/03 02:45:59;;;;;;;8.03;5.53;;;3.50;99.90;;;;;;5072060;28;20475;-50
2021/11/03 02:48:28;;;;;;;11.50;6.50;;;3.60;99.90;;;;;;5071650;28;20447;-49
2021/11/03 02:51:04;;;;;;;10.57;6.40;;;3.50;99.90;;;;;;5071564;28;20482;-49
2021/11/03 02:53:33;;;;;;;12.97;6.60;;;3.30;99.90;;;;;;5071710;28;20450;-49
2021/11/03 02:56:01;;;;;;;8.03;5.60;;;3.20;99.90;;;;;;5071424;28;20984;-50
2021/11/03 02:58:28;;;;;;;9.33;6.33;;;3.30;99.90;;;;;;5071613;28;20571;-50
2021/11/03 03:00:56;;;;;;;8.37;5.27;;;3.40;99.90;;;;;;5071664;28;20451;-49
2021/11/03 03:03:24;;;;;;;14.23;6.70;;;3.50;99.90;;;;;;5071450;28;20503;-50
2021/11/03 03:05:57;;;;;;;8.53;5.90;;;3.40;99.90;;;;;;5071181;28;20539;-50
2021/11/03 03:08:25;;;;;;;9.43;6.43;;;3.40;99.90;;;;;;5071759;28;20497;-50
2021/11/03 03:10:53;;;;;;;7.43;6.07;;;3.40;99.90;;;;;;5071386;28;20481;-49
2021/11/03 03:13:21;;;;;;;9.23;6.00;;;3.50;99.90;;;;;;5070946;28;20865;-49
2021/11/03 03:15:48;;;;;;;9.50;6.20;;;3.40;99.90;;;;;;5071484;28;20964;-50
2021/11/03 03:18:15;;;;;;;9.27;6.57;;;3.40;99.90;;;;;;5071618;28;20451;-50
2021/11/03 03:20:42;;;;;;;9.27;5.90;;;3.40;99.90;;;;;;5071349;28;20443;-50
2021/11/03 03:23:09;;;;;;;10.70;6.60;;;3.50;99.90;;;;;;5071286;28;20454;-50
2021/11/03 03:25:38;;;;;;;9.87;6.90;;;3.50;99.90;;;;;;5070824;28;20486;-50
2021/11/03 03:28:06;;;;;;;9.90;7.20;;;3.50;99.90;;;;;;5071636;28;20475;-50
2021/11/03 03:30:35;;;;;;;8.90;6.80;;;3.40;99.90;;;;;;5071079;28;20556;-50
2021/11/03 03:33:02;;;;;;;10.30;7.10;;;3.10;99.90;;;;;;5071223;28;21022;-49
2021/11/03 03:35:29;;;;;;;12.53;7.77;;;3.10;99.90;;;;;;5071597;28;20822;-50
2021/11/03 03:37:56;;;;;;;13.30;8.30;;;3.20;99.90;;;;;;5071589;28;20449;-49
2021/11/03 03:40:23;;;;;;;13.47;8.17;;;3.20;99.90;;;;;;5070822;28;20941;-49
2021/11/03 03:42:50;;;;;;;11.80;8.70;;;3.00;99.90;;;;;;5071345;28;20449;-49
2021/11/03 03:45:18;;;;;;;12.83;8.07;;;2.90;99.90;;;;;;5070942;28;20896;-50
2021/11/03 03:47:46;;;;;;;13.27;7.77;;;3.00;99.90;;;;;;5071355;28;20443;-49
2021/11/03 03:50:13;;;;;;;13.83;7.97;;;3.10;99.90;;;;;;5071333;28;20447;-50
2021/11/03 03:52:42;;;;;;;10.57;7.30;;;3.10;99.90;;;;;;5071186;28;20486;-50
2021/11/03 03:55:10;;;;;;;11.53;6.87;;;3.20;99.90;;;;;;5070580;28;20455;-50
2021/11/03 03:57:38;;;;;;;10.60;7.40;;;3.40;99.90;;;;;;5090243;22;20526;-54
2021/11/03 04:00:09;;;;;;;10.57;7.00;;;3.50;99.90;;;;;;5067929;28;20448;-54
2021/11/03 04:02:36;;;;;;;11.37;7.27;;;3.50;99.90;;;;;;5066851;28;20459;-53
2021/11/03 04:05:05;;;;;;;10.27;6.67;;;3.50;99.90;;;;;;5048981;28;20866;-54
2021/11/03 04:07:32;;;;;;;10.07;7.00;;;3.60;99.90;;;;;;5044078;28;20476;-54
2021/11/03 04:09:59;;;;;;;12.73;7.30;;;3.50;99.90;;;;;;5043558;28;20445;-53
2021/11/03 04:12:26;;;;;;;10.40;7.27;;;3.60;99.90;;;;;;5030761;28;20536;-55
2021/11/03 04:14:53;;;;;;;10.20;7.20;;;3.60;99.90;;;;;;5031480;28;20494;-54
2021/11/03 04:17:20;;;;;;;9.77;6.40;;;3.60;99.90;;;;;;5032260;28;20513;-54
2021/11/03 04:19:47;;;;;;;9.80;6.73;;;3.70;99.90;;;;;;5031416;28;20515;-54
2021/11/03 04:22:19;;;;;;;9.17;6.60;;;3.80;99.90;;;;;;5030302;28;20876;-54
2021/11/03 04:24:46;;;;;;;6.90;5.53;;;3.70;99.90;;;;;;5031195;28;20448;-53
2021/11/03 04:27:13;;;;;;;5.27;4.23;;;3.70;99.90;;;;;;5034314;28;20467;-54
2021/11/03 04:29:40;;;;;;;5.70;4.00;;;3.70;99.90;;;;;;5051225;28;20447;-53
2021/11/03 04:32:08;;;;;;;4.87;3.63;;;3.90;99.90;;;;;;5036095;28;20507;-54
2021/11/03 04:34:35;;;;;;;2.60;2.40;;;3.80;99.90;;;;;;5030800;28;20452;-53
2021/11/03 04:37:02;;;;;;;2.90;2.20;;;3.90;99.90;;;;;;5033204;28;20475;-54
2021/11/03 04:39:31;;;;;;;2.70;2.40;;;3.90;99.90;;;;;;5054491;28;20582;-54
2021/11/03 04:41:58;;;;;;;3.00;2.70;;;4.00;99.90;;;;;;5054424;28;20459;-54
2021/11/03 04:44:25;;;;;;;4.10;2.83;;;4.10;99.90;;;;;;5034621;28;20510;-54
2021/11/03 04:46:52;;;;;;;4.20;2.80;;;4.10;99.90;;;;;;5034511;28;20484;-53
2021/11/03 04:49:19;;;;;;;5.80;3.50;;;4.20;99.90;;;;;;5014602;28;21003;-54
2021/11/03 04:51:46;;;;;;;4.27;2.70;;;4.20;99.90;;;;;;5027672;28;20480;-54
2021/11/03 04:54:13;;;;;;;4.57;3.20;;;4.20;99.90;;;;;;5034244;28;20448;-54
2021/11/03 04:56:42;;;;;;;3.77;2.83;;;4.20;99.90;;;;;;5034282;28;20493;-54
2021/11/03 04:59:09;;;;;;;2.93;2.40;;;4.10;99.90;;;;;;5042730;28;20460;-53
2021/11/03 05:01:37;;;;;;;5.73;2.63;;;4.10;99.90;;;;;;5034158;28;20452;-53
2021/11/03 05:04:04;;;;;;;3.47;3.17;;;4.20;99.90;;;;;;5033416;28;20959;-54
2021/11/03 05:06:35;;;;;;;2.97;2.57;;;4.10;99.90;;;;;;5048858;28;21213;-53
2021/11/03 05:09:06;;;;;;;2.83;2.60;;;4.30;99.90;;;;;;5046733;28;20452;-54
2021/11/03 05:11:33;;;;;;;2.60;2.40;;;4.20;99.90;;;;;;5033907;28;20488;-54
2021/11/03 05:14:01;;;;;;;3.53;2.57;;;4.20;99.90;;;;;;5034058;28;20444;-54
2021/11/03 05:16:29;;;;;;;2.33;2.10;;;4.10;99.90;;;;;;5033986;28;20473;-53
2021/11/03 05:18:57;;;;;;;2.90;2.60;;;4.20;99.90;;;;;;5046100;28;20447;-54
2021/11/03 05:21:24;;;;;;;2.43;2.23;;;4.20;99.90;;;;;;5033779;28;20453;-55
2021/11/03 05:23:51;;;;;;;3.40;2.80;;;4.00;99.90;;;;;;5032462;28;20574;-53
2021/11/03 05:26:21;;;;;;;2.40;2.20;;;4.00;99.90;;;;;;5013803;28;20871;-54
2021/11/03 05:28:52;;;;;;;2.53;2.33;;;4.10;99.90;;;;;;5031527;28;20449;-54
2021/11/03 05:31:22;;;;;;;4.90;3.40;;;4.20;99.90;;;;;;5041366;28;20479;-53
2021/11/03 05:33:49;;;;;;;3.97;3.10;;;4.00;99.90;;;;;;5033449;28;20530;-54
2021/11/03 05:36:18;;;;;;;5.57;3.20;;;4.00;99.90;;;;;;5033439;28;20471;-53
2021/11/03 05:38:45;;;;;;;4.63;3.70;;;4.10;99.90;;;;;;5034533;28;20449;-54
2021/11/03 05:41:13;;;;;;;5.00;3.63;;;4.20;99.90;;;;;;5032828;28;20963;-54
2021/11/03 05:43:41;;;;;;;11.97;5.67;;;4.10;99.90;;;;;;5033164;28;20946;-54
2021/11/03 05:46:08;;;;;;;14.70;6.77;;;4.20;99.90;;;;;;5033171;28;20472;-54
2021/11/03 05:48:43;;;;;;;12.27;6.67;;;4.30;99.90;;;;;;5037947;28;20451;-54
2021/11/03 05:51:10;;;;;;;11.50;6.67;;;4.30;99.90;;;;;;5052476;28;20455;-55
2021/11/03 05:53:38;;;;;;;18.97;8.17;;;4.20;99.90;;;;;;5053098;28;20953;-54
2021/11/03 05:56:06;;;;;;;12.07;7.37;;;4.00;99.90;;;;;;5050031;28;21016;-53
2021/11/03 05:58:33;;;;;;;12.33;6.67;;;4.10;99.90;;;;;;5037178;28;20455;-53
2021/11/03 06:01:01;;;;;;;12.37;6.70;;;4.20;99.90;;;;;;5052755;28;20893;-55
2021/11/03 06:03:28;;;;;;;12.87;6.90;;;4.20;99.90;;;;;;5053064;28;20469;-53
2021/11/03 06:05:56;;;;;;;14.77;7.80;;;4.20;99.90;;;;;;5051381;28;20467;-54
2021/11/03 06:08:23;;;;;;;13.33;7.43;;;4.30;99.90;;;;;;5048202;28;20468;-54
2021/11/03 06:10:53;;;;;;;11.70;6.50;;;4.20;99.90;;;;;;5052578;28;20521;-54
2021/11/03 06:13:21;;;;;;;13.13;7.33;;;4.10;99.90;;;;;;5040526;28;20490;-55
2021/11/03 06:15:48;;;;;;;13.67;8.00;;;4.10;99.90;;;;;;5032956;28;20891;-54
2021/11/03 06:18:16;;;;;;;9.53;6.60;;;4.10;99.90;;;;;;5032932;28;20456;-53
2021/11/03 06:20:43;;;;;;;11.63;5.90;;;4.10;99.90;;;;;;5032292;28;20459;-55
2021/11/03 06:23:11;;;;;;;7.37;5.13;;;4.20;99.90;;;;;;5049120;28;20498;-54
2021/11/03 06:25:38;;;;;;;6.20;5.00;;;4.20;99.90;;;;;;5039328;28;21013;-54
2021/11/03 06:28:05;;;;;;;7.80;5.87;;;4.10;99.90;;;;;;5031274;28;20880;-53
2021/11/03 06:30:34;;;;;;;8.90;5.63;;;4.10;99.90;;;;;;5035924;28;20946;-54
2021/11/03 06:33:01;;;;;;;10.13;5.50;;;4.10;99.90;;;;;;5032394;28;20485;-54
2021/11/03 06:35:29;;;;;;;7.43;5.20;;;4.20;99.90;;;;;;5031891;28;20869;-53
2021/11/03 06:37:56;;;;;;;7.97;5.37;;;4.20;99.90;;;;;;5027462;28;20540;-54
2021/11/03 06:40:27;;;;;;;7.70;5.33;;;4.30;99.90;;;;;;5031395;28;20452;-54
2021/11/03 06:42:54;;;;;;;12.23;6.53;;;4.40;99.90;;;;;;5032610;28;20511;-53
2021/11/03 06:45:22;;;;;;;8.17;5.77;;;4.40;99.90;;;;;;5032470;28;20452;-54
2021/11/03 06:47:50;;;;;;;15.40;6.90;;;4.50;99.90;;;;;;5042667;28;20989;-54
2021/11/03 06:50:20;;;;;;;13.90;7.10;;;4.50;99.90;;;;;;5042574;28;20506;-57
2021/11/03 06:52:48;;;;;;;11.63;8.13;;;4.60;99.90;;;;;;5030362;28;20554;-54
2021/11/03 06:55:15;;;;;;;11.20;7.73;;;4.60;99.90;;;;;;5031936;28;20452;-54
2021/11/03 06:57:44;;;;;;;13.37;8.80;;;4.70;99.90;;;;;;5022722;28;20492;-54
2021/11/03 07:00:14;;;;;;;13.53;8.93;;;4.80;99.90;;;;;;5026850;28;20445;-54
2021/11/03 07:02:41;;;;;;;15.90;9.07;;;4.70;99.90;;;;;;5032143;28;20445;-55
2021/11/03 07:05:08;;;;;;;12.53;8.20;;;4.70;99.90;;;;;;5027590;28;20903;-54
2021/11/03 07:07:35;;;;;;;14.97;8.67;;;4.70;99.90;;;;;;5031600;28;20492;-54
2021/11/03 07:10:04;;;;;;;21.20;12.30;;;4.80;99.90;;;;;;5031478;28;20474;-54
2021/11/03 07:12:31;;;;;;;22.47;12.43;;;4.80;99.90;;;;;;5029867;28;20920;-54
2021/11/03 07:14:59;;;;;;;21.17;13.00;;;4.90;99.90;;;;;;5030620;28;20881;-54
2021/11/03 07:17:26;;;;;;;21.20;13.87;;;5.00;99.90;;;;;;5031001;28;21071;-54
2021/11/03 07:19:54;;;;;;;22.50;12.33;;;5.00;99.90;;;;;;5031611;28;20458;-54
2021/11/03 07:22:24;;;;;;;21.27;12.60;;;4.90;99.90;;;;;;5031798;28;20527;-54
2021/11/03 07:24:53;;;;;;;17.33;11.80;;;4.80;99.90;;;;;;5031960;28;20864;-54
2021/11/03 07:27:23;;;;;;;13.80;9.30;;;4.90;99.90;;;;;;5034416;28;21023;-54
2021/11/03 07:29:50;;;;;;;18.37;10.10;;;4.80;99.90;;;;;;5050825;28;20938;-54
2021/11/03 07:32:19;;;;;;;14.57;10.90;;;4.80;99.90;;;;;;5042091;28;21021;-55
2021/11/03 07:34:46;;;;;;;17.47;10.53;;;4.90;99.90;;;;;;5033095;28;20456;-54
2021/11/03 07:37:13;;;;;;;15.80;10.03;;;4.90;99.90;;;;;;5032239;28;21064;-54
2021/11/03 07:39:39;;;;;;;13.83;9.93;;;4.80;99.90;;;;;;5023286;28;20457;-54
2021/11/03 07:42:07;;;;;;;14.60;8.63;;;4.70;99.90;;;;;;5030914;28;20506;-53
2021/11/03 07:44:35;;;;;;;15.10;8.20;;;4.80;99.90;;;;;;5032494;28;20459;-54
2021/11/03 07:47:03;;;;;;;11.83;7.43;;;5.10;99.90;;;;;;5030682;28;20493;-53
2021/11/03 07:49:32;;;;;;;10.07;6.90;;;5.10;99.90;;;;;;5022148;28;20464;-55
2021/11/03 07:52:00;;;;;;;7.47;6.10;;;5.20;99.90;;;;;;5033099;28;20471;-54
2021/11/03 07:54:27;;;;;;;8.63;6.97;;;5.40;99.90;;;;;;5050866;28;20456;-56
2021/11/03 07:56:55;;;;;;;9.03;6.57;;;5.40;99.90;;;;;;5051005;28;20491;-53
2021/11/03 07:59:23;;;;;;;7.60;6.13;;;5.50;99.90;;;;;;5047347;28;20831;-53
2021/11/03 08:01:51;;;;;;;8.00;6.80;;;5.40;99.90;;;;;;5051142;28;20510;-53
2021/11/03 08:04:18;;;;;;;8.50;7.20;;;5.30;99.90;;;;;;5049675;28;20486;-53
2021/11/03 08:06:47;;;;;;;10.60;6.80;;;5.30;99.90;;;;;;5038430;28;20468;-54
2021/11/03 08:09:15;;;;;;;8.97;6.33;;;5.10;99.90;;;;;;5030802;28;20862;-54
2021/11/03 08:11:49;;;;;;;9.30;6.90;;;5.30;99.90;;;;;;5011120;28;20508;-53
2021/11/03 08:14:17;;;;;;;10.03;6.30;;;5.50;99.90;;;;;;5015017;28;20468;-54
2021/11/03 08:16:52;;;;;;;7.50;6.20;;;5.50;99.90;;;;;;5034536;28;20500;-54
2021/11/03 08:19:20;;;;;;;9.43;6.27;;;5.80;99.90;;;;;;5034637;28;20448;-54
2021/11/03 08:21:49;;;;;;;8.60;6.23;;;5.90;99.90;;;;;;5052135;28;20448;-53
2021/11/03 08:24:16;;;;;;;8.80;6.47;;;6.20;99.90;;;;;;5054352;28;20451;-54
2021/11/03 08:26:43;;;;;;;7.40;5.77;;;6.40;99.90;;;;;;5052677;28;20537;-54
2021/11/03 08:29:10;;;;;;;7.47;5.77;;;6.70;99.90;;;;;;5043122;28;20526;-54
2021/11/03 08:31:38;;;;;;;8.40;5.90;;;6.90;99.90;;;;;;5048589;28;20447;-52
2021/11/03 08:34:05;;;;;;;11.30;6.73;;;7.00;99.90;;;;;;5038090;28;20488;-55
2021/11/03 08:36:34;;;;;;;9.50;7.57;;;6.90;99.90;;;;;;5045138;28;20629;-54
2021/11/03 08:39:06;;;;;;;13.33;8.23;;;7.00;99.90;;;;;;5034986;28;20506;-54
2021/11/03 08:41:33;;;;;;;13.07;8.20;;;7.20;99.90;;;;;;5043123;28;20441;-55
2021/11/03 08:44:00;;;;;;;12.53;7.70;;;7.20;99.90;;;;;;5034565;28;20891;-54
2021/11/03 08:46:28;;;;;;;14.23;8.97;;;7.30;99.90;;;;;;5034214;28;20472;-53
2021/11/03 08:48:57;;;;;;;17.17;8.97;;;7.40;99.90;;;;;;5034097;28;20505;-53
2021/11/03 08:51:24;;;;;;;10.87;8.20;;;7.70;99.90;;;;;;5015255;28;21009;-54
2021/11/03 08:53:51;;;;;;;9.73;6.67;;;7.30;99.90;;;;;;5014141;28;20481;-54
2021/11/03 08:56:20;;;;;;;7.73;5.37;;;7.10;99.90;;;;;;5014309;28;20541;-54
2021/11/03 08:58:47;;;;;;;6.63;4.97;;;6.80;99.90;;;;;;5026791;28;20456;-54
2021/11/03 09:01:14;;;;;;;5.73;3.97;;;6.90;99.90;;;;;;5033879;28;20531;-53
2021/11/03 09:03:41;;;;;;;7.53;4.60;;;7.10;99.90;;;;;;5034089;28;20502;-54
2021/11/03 09:06:09;;;;;;;5.03;3.80;;;7.40;99.90;;;;;;5032694;28;20477;-54
2021/11/03 09:08:39;;;;;;;3.73;3.27;;;7.10;99.90;;;;;;5033451;28;20556;-53
2021/11/03 09:11:07;;;;;;;3.90;3.50;;;6.60;99.90;;;;;;5033373;28;20547;-53
2021/11/03 09:13:35;;;;;;;5.30;3.50;;;6.70;99.90;;;;;;5043864;28;20572;-53
2021/11/03 09:16:04;;;;;;;3.63;2.70;;;6.80;99.90;;;;;;5053463;28;20464;-54
2021/11/03 09:18:31;;;;;;;4.43;3.80;;;7.00;99.90;;;;;;5035656;28;20444;-54
2021/11/03 09:20:59;;;;;;;5.07;3.50;;;7.00;99.90;;;;;;5033271;28;21295;-55
2021/11/03 09:23:26;;;;;;;3.87;3.47;;;7.00;99.90;;;;;;5033355;28;20448;-54
2021/11/03 09:25:55;;;;;;;4.07;3.67;;;7.00;99.90;;;;;;5034735;28;20452;-54
2021/11/03 09:28:24;;;;;;;4.30;3.50;;;6.80;99.90;;;;;;5044286;28;20454;-53
2021/11/03 09:30:54;;;;;;;6.50;3.90;;;6.90;99.90;;;;;;5031187;28;20482;-54
2021/11/03 09:33:22;;;;;;;4.00;3.57;;;7.10;99.90;;;;;;5033083;28;20476;-54
2021/11/03 09:35:51;;;;;;;5.07;4.10;;;7.10;99.90;;;;;;5033539;28;20558;-53
2021/11/03 09:38:22;;;;;;;4.67;4.17;;;7.10;99.90;;;;;;5032854;28;20452;-54
2021/11/03 09:40:55;;;;;;;8.53;4.33;;;7.20;99.90;;;;;;5032908;28;20448;-54
2021/11/03 09:43:29;;;;;;;6.70;4.20;;;7.30;99.90;;;;;;5033241;28;20448;-54
2021/11/03 09:45:58;;;;;;;8.80;4.87;;;7.30;99.90;;;;;;5033083;28;20578;-54
2021/11/03 09:48:28;;;;;;;7.17;5.07;;;7.40;99.90;;;;;;5037911;28;20445;-54
2021/11/03 09:50:59;;;;;;;7.60;5.27;;;7.70;99.90;;;;;;5047142;28;20509;-53
2021/11/03 09:53:32;;;;;;;7.87;5.40;;;7.80;99.90;;;;;;5051272;28;20484;-54
2021/11/03 09:55:59;;;;;;;7.27;5.53;;;7.80;99.90;;;;;;5059398;22;20982;-52
2021/11/03 09:58:44;;;;;;;6.60;5.57;;;7.80;99.90;;;;;;5032098;28;20495;-50
2021/11/03 10:01:23;;;;;;;6.80;5.40;;;8.00;99.90;;;;;;5031394;28;20463;-49
2021/11/03 10:04:08;;;;;;;7.20;5.30;;;8.00;99.90;;;;;;5040173;28;20444;-50
2021/11/03 10:06:45;;;;;;;7.03;5.47;;;8.20;99.90;;;;;;5052430;28;20879;-51
2021/11/03 10:09:12;;;;;;;7.50;5.43;;;8.20;99.90;;;;;;5034578;28;20941;-50
2021/11/03 10:11:42;;;;;;;6.47;5.00;;;8.30;99.90;;;;;;5032175;28;20509;-50
2021/11/03 10:14:10;;;;;;;9.23;5.93;;;8.20;99.90;;;;;;5032188;28;20530;-50
2021/11/03 10:16:40;;;;;;;9.90;6.90;;;8.10;99.90;;;;;;5032372;28;21044;-50
2021/11/03 10:19:22;;;;;;;8.17;6.17;;;8.40;99.90;;;;;;5032460;28;20511;-52
2021/11/03 10:21:51;;;;;;;8.27;5.90;;;8.40;99.90;;;;;;5021207;28;20954;-51
2021/11/03 10:24:35;;;;;;;10.67;7.70;;;8.60;99.90;;;;;;5032222;28;20452;-52
2021/11/03 10:27:13;;;;;;;10.90;7.00;;;8.90;99.90;;;;;;5031364;28;20537;-53
2021/11/03 10:29:42;;;;;;;7.50;6.17;;;9.10;99.90;;;;;;5032250;28;20455;-53
2021/11/03 10:32:22;;;;;;;8.23;6.53;;;9.10;99.90;;;;;;5031785;28;20451;-52
2021/11/03 10:35:11;;;;;;;7.43;5.57;;;9.00;99.90;;;;;;5031509;28;20975;-52
2021/11/03 10:37:43;;;;;;;11.90;6.80;;;8.90;99.90;;;;;;5032147;28;20479;-52
2021/11/03 10:40:25;;;;;;;6.73;6.03;;;9.00;99.90;;;;;;5032036;28;20879;-52
2021/11/03 10:42:56;;;;;;;7.17;5.87;;;9.00;99.90;;;;;;5032043;28;20484;-52
2021/11/03 10:45:28;;;;;;;7.63;5.47;;;8.90;99.90;;;;;;5032182;28;20539;-52
2021/11/03 10:48:11;;;;;;;8.77;6.07;;;8.70;99.90;;;;;;5031987;28;20542;-51
2021/11/03 10:50:41;;;;;;;7.00;5.50;;;8.50;99.90;;;;;;5031657;28;20506;-52
2021/11/03 10:53:18;;;;;;;8.77;6.50;;;8.50;99.90;;;;;;5031596;28;20545;-51
2021/11/03 10:55:50;;;;;;;9.33;6.20;;;8.40;99.90;;;;;;5031892;28;20509;-51
2021/11/03 10:58:26;;;;;;;8.50;6.40;;;8.30;99.90;;;;;;5031089;28;20538;-51
2021/11/03 11:01:00;;;;;;;7.43;5.70;;;8.40;99.90;;;;;;5031575;28;20448;-51
2021/11/03 11:03:32;;;;;;;7.97;5.70;;;8.20;99.90;;;;;;5031305;28;20491;-50
2021/11/03 11:06:07;;;;;;;14.07;7.47;;;8.20;99.90;;;;;;5030923;28;20503;-51
2021/11/03 11:08:35;;;;;;;9.40;6.50;;;8.30;99.90;;;;;;5030425;28;20887;-51
2021/11/03 11:11:07;;;;;;;6.97;5.27;;;8.50;99.90;;;;;;5030943;28;20980;-51
2021/11/03 11:13:39;;;;;;;6.03;5.00;;;8.60;99.90;;;;;;5031316;28;20469;-51
2021/11/03 11:16:19;;;;;;;5.73;4.80;;;8.80;99.90;;;;;;5031112;28;20955;-50
2021/11/03 11:19:03;;;;;;;6.80;5.03;;;8.80;99.90;;;;;;5031746;28;20453;-51
2021/11/03 11:21:41;;;;;;;5.47;4.90;;;8.80;99.90;;;;;;5031138;28;20938;-51
2021/11/03 11:24:12;;;;;;;6.67;4.40;;;8.90;99.90;;;;;;5031700;28;20451;-50
2021/11/03 11:26:45;;;;;;;5.00;4.27;;;8.80;99.90;;;;;;5031293;28;20464;-51
2021/11/03 11:29:16;;;;;;;5.30;4.20;;;8.70;99.90;;;;;;5031048;28;20457;-52
2021/11/03 11:31:46;;;;;;;6.13;4.10;;;8.70;99.90;;;;;;5030216;28;20464;-50
2021/11/03 11:34:47;;;;;;;5.83;5.23;;;8.80;99.90;;;;;;5030812;28;20544;-52
2021/11/03 11:37:22;;;;;;;7.00;5.10;;;8.80;99.90;;;;;;5029724;28;20531;-50
2021/11/03 11:39:54;;;;;;;6.67;5.10;;;8.80;99.90;;;;;;5031122;28;20448;-53
2021/11/03 11:42:28;;;;;;;8.00;5.23;;;9.00;99.90;;;;;;5030770;28;20460;-53
2021/11/03 11:44:58;;;;;;;6.17;5.57;;;8.90;99.90;;;;;;5030480;28;20456;-54
2021/11/03 11:47:36;;;;;;;6.20;5.10;;;9.00;99.90;;;;;;5033055;28;20910;-52
2021/11/03 11:50:09;;;;;;;8.53;5.07;;;9.00;99.90;;;;;;5034550;28;20510;-55
2021/11/03 11:52:36;;;;;;;6.00;5.40;;;8.90;99.90;;;;;;5034489;28;20452;-53
2021/11/03 11:55:20;;;;;;;6.23;5.20;;;9.00;99.90;;;;;;5034592;28;20476;-53
2021/11/03 11:58:20;;;;;;;8.57;6.07;;;9.10;99.90;;;;;;5034475;28;20483;-53
2021/11/03 12:01:29;;;;;;;8.57;5.87;;;9.10;99.90;;;;;;5033869;28;20499;-52
2021/11/03 12:04:34;;;;;;;6.27;5.63;;;9.00;99.90;;;;;;5033993;28;20472;-55
2021/11/03 12:07:25;;;;;;;7.07;6.27;;;8.90;99.90;;;;;;5012158;28;20472;-53
2021/11/03 12:10:17;;;;;;;13.00;6.30;;;8.60;99.90;;;;;;5035126;28;20432;-54
2021/11/03 12:13:26;;;;;;;9.00;6.53;;;8.60;99.90;;;;;;5034499;28;20459;-53
2021/11/03 12:16:17;;;;;;;9.10;6.47;;;8.60;99.90;;;;;;5034667;28;20957;-52
2021/11/03 12:18:51;;;;;;;7.70;5.70;;;8.50;99.90;;;;;;5034450;28;20510;-53
2021/11/03 12:21:36;;;;;;;6.47;5.40;;;8.50;99.90;;;;;;5014647;28;20444;-54
2021/11/03 12:24:29;;;;;;;8.47;6.70;;;8.50;99.90;;;;;;5019084;28;20456;-53
2021/11/03 12:27:32;;;;;;;7.87;6.13;;;8.50;99.90;;;;;;5034332;28;20464;-54
2021/11/03 12:30:05;;;;;;;8.10;6.03;;;8.40;99.90;;;;;;5026133;28;20483;-54
2021/11/03 12:32:40;;;;;;;8.10;6.70;;;8.40;99.90;;;;;;5033421;28;20448;-53
2021/11/03 12:35:40;;;;;;;8.60;6.80;;;8.30;99.90;;;;;;5034001;28;21097;-53
2021/11/03 12:38:42;;;;;;;8.23;6.40;;;8.30;99.90;;;;;;5033699;28;20472;-53
2021/11/03 12:41:21;;;;;;;9.60;7.70;;;8.20;99.90;;;;;;5033481;28;20455;-53
2021/11/03 12:43:50;;;;;;;12.07;7.33;;;8.20;99.90;;;;;;5033042;28;20451;-53
2021/11/03 12:46:20;;;;;;;9.17;6.43;;;8.20;99.90;;;;;;5033408;28;20521;-53
2021/11/03 12:48:49;;;;;;;10.30;6.70;;;8.20;99.90;;;;;;5051003;28;20527;-53
2021/11/03 12:51:19;;;;;;;9.20;6.00;;;8.20;99.90;;;;;;5041403;28;20451;-52
2021/11/03 12:53:51;;;;;;;12.47;6.97;;;8.30;99.90;;;;;;5033782;28;20574;-52
2021/11/03 12:56:24;;;;;;;10.37;6.77;;;8.20;99.90;;;;;;5033398;28;20853;-52
2021/11/03 12:58:56;;;;;;;9.40;6.67;;;8.30;99.90;;;;;;5032543;28;20452;-53
2021/11/03 13:01:27;;;;;;;7.90;6.43;;;8.30;99.90;;;;;;5033874;28;20445;-53
2021/11/03 13:03:58;;;;;;;8.13;6.17;;;8.20;99.90;;;;;;5032750;28;20482;-52
2021/11/03 13:06:28;;;;;;;8.37;6.63;;;8.20;99.90;;;;;;5032893;28;20477;-52
2021/11/03 13:08:56;;;;;;;11.60;8.13;;;8.20;99.90;;;;;;5014056;28;20515;-52
2021/11/03 13:11:29;;;;;;;18.37;9.40;;;8.10;99.90;;;;;;5018458;28;20532;-52